Time;durP1;ratioP1;P1;durP2;ratioP2;P2;SDS_P1;SDS_P2;PMS_P1;PMS_P2;Temp;Humidity;BMP_temperature;BMP_pressure;BME280_temperature;BME280_humidity;BME280_pressure;Samples;Min_cycle;Max_cycle;Signal;HPM_P1;HPM_P2
2022/03/22 00:00:08;;;;;;;;;;;6.40;95.10;;;;;;5092303;28;21919;-52
2022/03/22 00:02:35;;;;;;;;;;;6.40;95.10;;;;;;5117281;22;19931;-56
2022/03/22 00:05:02;;;;;;;;;;;6.30;95.40;;;;;;5094280;28;20364;-55
2022/03/22 00:07:29;;;;;;;;;;;6.10;95.60;;;;;;5095070;28;19999;-55
2022/03/22 00:09:55;;;;;;;;;;;6.00;96.10;;;;;;5096032;28;19924;-57
2022/03/22 00:12:23;;;;;;;;;;;6.00;96.00;;;;;;5095968;28;19924;-55
2022/03/22 00:14:50;;;;;;;;;;;5.80;96.60;;;;;;5086631;28;19925;-56
2022/03/22 00:17:17;;;;;;;;;;;5.50;97.20;;;;;;5092502;28;20348;-56
2022/03/22 00:19:44;;;;;;;;;;;5.80;96.80;;;;;;5081393;28;19932;-57
2022/03/22 00:22:11;;;;;;;;;;;5.70;97.30;;;;;;5092004;28;20353;-57
2022/03/22 00:24:38;;;;;;;;;;;5.70;97.40;;;;;;5082773;28;19924;-56
2022/03/22 00:27:04;;;;;;;;;;;5.90;97.30;;;;;;5079399;28;19997;-57
2022/03/22 00:29:34;;;;;;;;;;;5.90;97.20;;;;;;5082805;28;19977;-56
2022/03/22 00:32:00;;;;;;;;;;;5.80;97.70;;;;;;5089517;28;20372;-57
2022/03/22 00:34:27;;;;;;;;;;;5.70;97.50;;;;;;5089505;28;19924;-56
2022/03/22 00:36:58;;;;;;;;;;;5.80;98.00;;;;;;5081010;28;20395;-57
2022/03/22 00:39:25;;;;;;;;;;;5.60;97.80;;;;;;5087112;28;20104;-56
2022/03/22 00:41:53;;;;;;;;;;;5.50;98.80;;;;;;5077170;28;20341;-56
2022/03/22 00:44:20;;;;;;;;;;;5.20;99.70;;;;;;5077489;28;20360;-56
2022/03/22 00:46:48;;;;;;;;;;;5.20;99.70;;;;;;5083334;28;19970;-57
2022/03/22 00:49:14;;;;;;;;;;;5.10;99.90;;;;;;5078111;28;19986;-56
2022/03/22 00:51:41;;;;;;;;;;;5.00;99.90;;;;;;5084875;28;19924;-56
2022/03/22 00:54:08;;;;;;;;;;;4.90;99.90;;;;;;5094482;28;19932;-56
2022/03/22 00:56:35;;;;;;;;;;;4.80;99.90;;;;;;5095218;28;19924;-56
2022/03/22 01:01:48;;;;;;;;;;;5.30;99.90;;;;;;5089719;28;19978;-56
2022/03/22 01:04:15;;;;;;;;;;;5.30;99.90;;;;;;5074563;28;20380;-56
2022/03/22 01:06:42;;;;;;;;;;;5.00;99.90;;;;;;5075587;28;19939;-56
2022/03/22 01:09:10;;;;;;;;;;;5.00;99.90;;;;;;5087505;28;19943;-56
2022/03/22 01:11:39;;;;;;;;;;;5.00;99.90;;;;;;5078970;28;20058;-57
2022/03/22 01:14:07;;;;;;;;;;;4.90;99.90;;;;;;5084638;28;19931;-56
2022/03/22 01:16:34;;;;;;;;;;;4.90;99.90;;;;;;5096268;28;19939;-56
2022/03/22 01:19:02;;;;;;;;;;;4.90;99.90;;;;;;5085418;28;19925;-56
2022/03/22 01:21:29;;;;;;;;;;;4.90;99.90;;;;;;5077982;28;20384;-56
2022/03/22 01:23:56;;;;;;;;;;;4.80;99.90;;;;;;5076978;28;19924;-56
2022/03/22 01:26:22;;;;;;;;;;;4.70;99.90;;;;;;5074296;28;19925;-56
2022/03/22 01:28:50;;;;;;;;;;;4.80;99.90;;;;;;5089836;28;20393;-56
2022/03/22 01:31:17;;;;;;;;;;;4.80;99.90;;;;;;5076127;28;19937;-56
2022/03/22 01:33:44;;;;;;;;;;;5.00;99.90;;;;;;5079017;28;20001;-56
2022/03/22 01:36:12;;;;;;;;;;;4.80;99.90;;;;;;5091974;28;19991;-56
2022/03/22 01:38:40;;;;;;;;;;;4.90;99.90;;;;;;5083141;28;19989;-56
2022/03/22 01:41:08;;;;;;;;;;;4.90;99.90;;;;;;5091125;28;19982;-56
2022/03/22 01:43:35;;;;;;;;;;;4.80;99.90;;;;;;5076191;28;19970;-56
2022/03/22 01:46:02;;;;;;;;;;;4.60;99.90;;;;;;5080865;28;19924;-56
2022/03/22 01:48:29;;;;;;;;;;;4.40;99.90;;;;;;5079475;28;19950;-56
2022/03/22 01:50:56;;;;;;;;;;;4.20;99.90;;;;;;5086620;28;19925;-56
2022/03/22 01:53:24;;;;;;;;;;;4.20;99.90;;;;;;5078659;28;19925;-56
2022/03/22 01:55:51;;;;;;;;;;;4.20;99.90;;;;;;5077887;28;19939;-55
2022/03/22 01:58:18;;;;;;;;;;;4.10;99.90;;;;;;5085989;28;19924;-56
2022/03/22 02:00:44;;;;;;;;;;;3.90;99.90;;;;;;5092114;28;20365;-55
2022/03/22 02:05:56;;;;;;;;;;;3.90;99.90;;;;;;5081473;28;19931;-56
2022/03/22 02:08:29;;;;;;;;;;;3.80;99.90;;;;;;5085326;28;19925;-56
2022/03/22 02:10:56;;;;;;;;;;;3.70;99.90;;;;;;5084807;28;19924;-56
2022/03/22 02:13:23;;;;;;;;;;;3.60;99.90;;;;;;5090147;28;19977;-56
2022/03/22 02:15:51;;;;;;;;;;;3.60;99.90;;;;;;5082134;28;20307;-56
2022/03/22 02:18:18;;;;;;;;;;;3.50;99.90;;;;;;5078404;28;19928;-56
2022/03/22 02:20:46;;;;;;;;;;;3.40;99.90;;;;;;5074787;28;19928;-56
2022/03/22 02:23:15;;;;;;;;;;;3.40;99.90;;;;;;5073967;28;19925;-56
2022/03/22 02:25:43;;;;;;;;;;;3.40;99.90;;;;;;5073303;28;19925;-56
2022/03/22 02:28:11;;;;;;;;;;;3.30;99.90;;;;;;5073237;28;19924;-60
2022/03/22 02:30:39;;;;;;;;;;;3.20;99.90;;;;;;5082025;28;19924;-55
2022/03/22 02:33:06;;;;;;;;;;;3.40;99.90;;;;;;5077275;28;19924;-55
2022/03/22 02:35:32;;;;;;;;;;;3.60;99.90;;;;;;5073205;28;20388;-56
2022/03/22 02:37:59;;;;;;;;;;;3.50;99.90;;;;;;5077097;28;19985;-55
2022/03/22 02:40:27;;;;;;;;;;;3.40;99.90;;;;;;5090725;28;19924;-56
2022/03/22 02:42:55;;;;;;;;;;;3.40;99.90;;;;;;5073078;28;20399;-56
2022/03/22 02:45:22;;;;;;;;;;;3.30;99.90;;;;;;5072927;28;19924;-56
2022/03/22 02:47:50;;;;;;;;;;;3.20;99.90;;;;;;5079229;28;19924;-56
2022/03/22 02:50:17;;;;;;;;;;;3.10;99.90;;;;;;5084636;28;19970;-56
2022/03/22 02:52:45;;;;;;;;;;;3.10;99.90;;;;;;5084724;28;19924;-56
2022/03/22 02:55:12;;;;;;;;;;;3.20;99.90;;;;;;5093204;28;19924;-56
2022/03/22 02:57:40;;;;;;;;;;;3.20;99.90;;;;;;5088481;28;19924;-55
2022/03/22 03:00:09;;;;;;;;;;;3.20;99.90;;;;;;5074991;28;19928;-56
2022/03/22 03:02:40;;;;;;;;;;;3.40;99.90;;;;;;5082155;28;19929;-56
2022/03/22 03:05:08;;;;;;;;;;;3.60;99.90;;;;;;5072879;28;19928;-56
2022/03/22 03:07:35;;;;;;;;;;;3.60;99.90;;;;;;5088119;28;19924;-57
2022/03/22 03:10:01;;;;;;;;;;;3.20;99.90;;;;;;5077400;28;19927;-56
2022/03/22 03:12:28;;;;;;;;;;;2.90;99.90;;;;;;5087138;28;20346;-56
2022/03/22 03:14:55;;;;;;;;;;;2.70;99.90;;;;;;5089951;28;19928;-56
2022/03/22 03:17:23;;;;;;;;;;;2.60;99.90;;;;;;5072688;28;19977;-56
2022/03/22 03:19:50;;;;;;;;;;;2.70;99.90;;;;;;5089035;28;19924;-56
2022/03/22 03:22:16;;;;;;;;;;;2.80;99.90;;;;;;5091420;28;20456;-56
2022/03/22 03:24:43;;;;;;;;;;;2.70;99.90;;;;;;5082738;28;19974;-56
2022/03/22 03:27:10;;;;;;;;;;;2.50;99.90;;;;;;5076630;28;19970;-56
2022/03/22 03:29:36;;;;;;;;;;;3.00;99.90;;;;;;5088872;28;20375;-56
2022/03/22 03:32:03;;;;;;;;;;;3.10;99.90;;;;;;5079816;28;19985;-56
2022/03/22 03:34:31;;;;;;;;;;;3.00;99.90;;;;;;5090903;28;19924;-56
2022/03/22 03:36:58;;;;;;;;;;;2.90;99.90;;;;;;5092370;28;20475;-56
2022/03/22 03:39:25;;;;;;;;;;;3.00;99.90;;;;;;5091842;28;19928;-56
2022/03/22 03:41:53;;;;;;;;;;;3.20;99.90;;;;;;5090327;28;19924;-56
2022/03/22 03:47:08;;;;;;;;;;;3.00;99.90;;;;;;5075999;28;19947;-56
2022/03/22 03:49:37;;;;;;;;;;;2.80;99.90;;;;;;5072697;28;20305;-56
2022/03/22 03:52:05;;;;;;;;;;;2.90;99.90;;;;;;5079548;28;20388;-56
2022/03/22 03:54:32;;;;;;;;;;;3.10;99.90;;;;;;5071910;28;19946;-56
2022/03/22 03:56:58;;;;;;;;;;;3.00;99.90;;;;;;5072454;28;19978;-56
2022/03/22 03:59:25;;;;;;;;;;;3.20;99.90;;;;;;5075572;28;20288;-56
2022/03/22 04:01:52;;;;;;;;;;;3.00;99.90;;;;;;5076502;28;19928;-56
2022/03/22 04:04:19;;;;;;;;;;;2.80;99.90;;;;;;5072424;28;19925;-56
2022/03/22 04:06:47;;;;;;;;;;;2.70;99.90;;;;;;5085921;28;19981;-56
2022/03/22 04:09:14;;;;;;;;;;;2.60;99.90;;;;;;5092331;28;19959;-56
2022/03/22 04:11:41;;;;;;;;;;;2.50;99.90;;;;;;5092169;28;19925;-56
2022/03/22 04:14:08;;;;;;;;;;;2.40;99.90;;;;;;5091805;28;20004;-56
2022/03/22 04:16:36;;;;;;;;;;;2.50;99.90;;;;;;5084643;28;19925;-56
2022/03/22 04:19:03;;;;;;;;;;;2.40;99.90;;;;;;5078116;28;20017;-56
2022/03/22 04:21:34;;;;;;;;;;;2.30;99.90;;;;;;5076177;28;19997;-57
2022/03/22 04:24:02;;;;;;;;;;;2.20;99.90;;;;;;5075458;28;19924;-57
2022/03/22 04:26:29;;;;;;;;;;;2.20;99.90;;;;;;5075296;28;19978;-57
2022/03/22 04:34:24;;;;;;;;;;;2.30;99.90;;;;;;5075700;28;20001;-57
2022/03/22 04:36:57;;;;;;;;;;;2.20;99.90;;;;;;5076077;28;19925;-57
2022/03/22 04:39:25;;;;;;;;;;;2.10;99.90;;;;;;5077720;28;20011;-57
2022/03/22 04:41:52;;;;;;;;;;;2.00;99.90;;;;;;5092148;28;20390;-57
2022/03/22 04:44:19;;;;;;;;;;;2.00;99.90;;;;;;5077099;28;19932;-57
2022/03/22 04:46:46;;;;;;;;;;;2.00;99.90;;;;;;5075472;28;19929;-57
2022/03/22 04:49:13;;;;;;;;;;;2.00;99.90;;;;;;5091440;28;20405;-57
2022/03/22 04:57:10;;;;;;;;;;;2.30;99.90;;;;;;5094692;28;19931;-57
2022/03/22 04:59:37;;;;;;;;;;;2.20;99.90;;;;;;5083737;28;19990;-57
2022/03/22 05:02:04;;;;;;;;;;;2.10;99.90;;;;;;5089736;28;20395;-57
2022/03/22 05:04:30;;;;;;;;;;;2.00;99.90;;;;;;5091085;28;19973;-56
2022/03/22 05:06:57;;;;;;;;;;;2.00;99.90;;;;;;5086561;28;20307;-56
2022/03/22 05:09:24;;;;;;;;;;;2.00;99.90;;;;;;5097309;28;19985;-55
2022/03/22 05:11:52;;;;;;;;;;;2.00;99.90;;;;;;5099721;28;19924;-55
2022/03/22 05:14:19;;;;;;;;;;;1.90;99.90;;;;;;5075625;28;19924;-56
2022/03/22 05:16:46;;;;;;;;;;;1.80;99.90;;;;;;5074658;28;19997;-55
2022/03/22 05:19:13;;;;;;;;;;;1.80;99.90;;;;;;5074600;28;19924;-56
2022/03/22 05:21:40;;;;;;;;;;;1.70;99.90;;;;;;5074550;28;19924;-55
2022/03/22 05:24:07;;;;;;;;;;;2.00;99.90;;;;;;5074472;28;19970;-56
2022/03/22 05:26:34;;;;;;;;;;;2.40;99.90;;;;;;5078737;28;20352;-55
2022/03/22 05:29:04;;;;;;;;;;;2.60;99.90;;;;;;5081750;28;19924;-55
2022/03/22 05:31:31;;;;;;;;;;;2.70;99.90;;;;;;5087048;28;19970;-56
2022/03/22 05:33:58;;;;;;;;;;;2.70;99.90;;;;;;5094600;28;19969;-55
2022/03/22 05:36:24;;;;;;;;;;;2.70;99.90;;;;;;5079272;28;20009;-56
2022/03/22 05:38:52;;;;;;;;;;;2.60;99.90;;;;;;5074314;28;19950;-56
2022/03/22 05:41:18;;;;;;;;;;;2.40;99.90;;;;;;5084049;28;20023;-55
2022/03/22 05:43:46;;;;;;;;;;;2.20;99.90;;;;;;5089398;28;19924;-55
2022/03/22 05:46:17;;;;;;;;;;;2.30;99.90;;;;;;5085649;28;20591;-55
2022/03/22 05:48:43;;;;;;;;;;;2.50;99.90;;;;;;5094499;28;19924;-55
2022/03/22 05:51:10;;;;;;;;;;;2.50;99.90;;;;;;5077386;28;19951;-55
2022/03/22 05:53:37;;;;;;;;;;;2.40;99.90;;;;;;5073517;28;19932;-55
2022/03/22 05:56:04;;;;;;;;;;;2.60;99.90;;;;;;5073825;28;20015;-57
2022/03/22 05:58:32;;;;;;;;;;;2.50;99.90;;;;;;5076096;28;19928;-55
2022/03/22 06:01:00;;;;;;;;;;;2.80;99.90;;;;;;5091522;28;19931;-55
2022/03/22 06:03:28;;;;;;;;;;;2.70;99.90;;;;;;5075657;28;20241;-55
2022/03/22 06:05:55;;;;;;;;;;;2.80;99.90;;;;;;5076691;28;19928;-55
2022/03/22 06:08:21;;;;;;;;;;;2.90;99.90;;;;;;5087838;28;19931;-56
2022/03/22 06:10:49;;;;;;;;;;;3.00;99.90;;;;;;5100114;22;19924;-51
2022/03/22 06:13:15;;;;;;;;;;;3.20;99.90;;;;;;5074510;28;19924;-50
2022/03/22 06:15:43;;;;;;;;;;;3.70;99.90;;;;;;5072023;28;19929;-51
2022/03/22 06:18:11;;;;;;;;;;;5.20;99.90;;;;;;5065055;28;19925;-51
2022/03/22 06:20:41;;;;;;;;;;;8.00;99.90;;;;;;5063634;28;19982;-52
2022/03/22 06:23:08;;;;;;;;;;;10.90;99.90;;;;;;5061939;28;19928;-52
2022/03/22 06:25:35;;;;;;;;;;;13.70;99.90;;;;;;5067447;28;19924;-50
2022/03/22 06:28:03;;;;;;;;;;;15.60;91.90;;;;;;5062644;28;19924;-50
2022/03/22 06:30:30;;;;;;;;;;;17.00;87.70;;;;;;5070558;28;19932;-50
2022/03/22 06:32:57;;;;;;;;;;;18.30;84.10;;;;;;5070699;28;19925;-50
2022/03/22 06:35:25;;;;;;;;;;;19.40;79.00;;;;;;5071610;28;19924;-51
2022/03/22 06:37:54;;;;;;;;;;;20.70;75.60;;;;;;5071307;28;19924;-51
2022/03/22 06:40:22;;;;;;;;;;;21.40;71.30;;;;;;5070295;28;19928;-51
2022/03/22 06:42:49;;;;;;;;;;;22.20;67.20;;;;;;5070856;28;19935;-51
2022/03/22 06:45:16;;;;;;;;;;;22.10;65.20;;;;;;5069748;28;19924;-50
2022/03/22 06:47:43;;;;;;;;;;;22.80;62.40;;;;;;5070898;28;19938;-51
2022/03/22 06:50:11;;;;;;;;;;;22.60;62.20;;;;;;5067104;28;20355;-51
2022/03/22 06:52:38;;;;;;;;;;;22.80;60.30;;;;;;5071719;28;20057;-51
2022/03/22 06:55:07;;;;;;;;;;;22.70;59.80;;;;;;5071314;28;19985;-51
2022/03/22 06:57:34;;;;;;;;;;;21.70;60.20;;;;;;5071653;28;19925;-51
2022/03/22 07:00:02;;;;;;;;;;;21.40;61.80;;;;;;5071598;28;19925;-50
2022/03/22 07:02:28;;;;;;;;;;;20.60;62.50;;;;;;5060135;28;20403;-50
2022/03/22 07:04:55;;;;;;;;;;;19.90;63.80;;;;;;5067436;28;19944;-51
2022/03/22 07:07:22;;;;;;;;;;;19.50;64.30;;;;;;5070891;28;19929;-50
2022/03/22 07:09:49;;;;;;;;;;;19.00;65.00;;;;;;5053772;28;19941;-50
2022/03/22 07:12:17;;;;;;;;;;;18.20;66.10;;;;;;5051380;28;19925;-50
2022/03/22 07:14:44;;;;;;;;;;;17.40;67.40;;;;;;5058519;28;19951;-50
2022/03/22 07:17:11;;;;;;;;;;;17.10;68.80;;;;;;5069780;28;19924;-51
2022/03/22 07:19:38;;;;;;;;;;;18.00;67.60;;;;;;5069418;28;19928;-50
2022/03/22 07:22:05;;;;;;;;;;;18.80;67.20;;;;;;5069300;28;19928;-50
2022/03/22 07:24:33;;;;;;;;;;;19.60;66.10;;;;;;5069121;28;19924;-51
2022/03/22 07:27:00;;;;;;;;;;;21.00;63.50;;;;;;5069932;28;20362;-50
2022/03/22 07:29:30;;;;;;;;;;;20.30;65.40;;;;;;5065041;28;19924;-51
2022/03/22 07:31:59;;;;;;;;;;;21.30;64.40;;;;;;5063184;28;19924;-51
2022/03/22 07:34:27;;;;;;;;;;;21.10;64.40;;;;;;5060666;28;19928;-52
2022/03/22 07:36:54;;;;;;;;;;;20.60;65.80;;;;;;5054732;28;19924;-51
2022/03/22 07:39:22;;;;;;;;;;;20.90;66.20;;;;;;5070864;28;20014;-51
2022/03/22 07:41:49;;;;;;;;;;;21.30;65.50;;;;;;5069567;28;19978;-51
2022/03/22 07:44:17;;;;;;;;;;;22.20;65.90;;;;;;5070013;28;19978;-51
2022/03/22 07:46:45;;;;;;;;;;;22.30;63.90;;;;;;5070804;28;19925;-51
2022/03/22 07:54:41;;;;;;;;;;;22.20;63.60;;;;;;5074703;28;20446;-51
2022/03/22 07:57:08;;;;;;;;;;;22.10;64.50;;;;;;5074448;28;19932;-50
2022/03/22 07:59:35;;;;;;;;;;;23.80;62.70;;;;;;5074288;28;19924;-51
2022/03/22 08:02:03;;;;;;;;;;;24.30;60.00;;;;;;5074244;28;19951;-51
2022/03/22 08:04:30;;;;;;;;;;;22.90;63.80;;;;;;5068469;28;19925;-51
2022/03/22 08:06:56;;;;;;;;;;;23.80;61.40;;;;;;5060131;28;19925;-51
2022/03/22 08:09:23;;;;;;;;;;;24.30;60.10;;;;;;5065937;28;19928;-51
2022/03/22 08:11:51;;;;;;;;;;;23.70;61.70;;;;;;5074427;28;19932;-51
2022/03/22 08:14:19;;;;;;;;;;;24.20;61.80;;;;;;5074311;28;19932;-52
2022/03/22 08:16:46;;;;;;;;;;;25.80;58.20;;;;;;5065730;28;19975;-51
2022/03/22 08:19:18;;;;;;;;;;;26.10;57.20;;;;;;5074103;28;19924;-52
2022/03/22 08:21:45;;;;;;;;;;;26.90;56.70;;;;;;5074024;28;19925;-52
2022/03/22 08:24:12;;;;;;;;;;;27.90;54.60;;;;;;5073910;28;19925;-52
2022/03/22 08:26:39;;;;;;;;;;;28.70;53.30;;;;;;5073483;28;19924;-53
2022/03/22 08:29:06;;;;;;;;;;;28.90;52.60;;;;;;5074207;28;19925;-52
2022/03/22 08:31:33;;;;;;;;;;;29.30;52.60;;;;;;5065650;28;19986;-53
2022/03/22 08:34:00;;;;;;;;;;;28.30;52.60;;;;;;5054012;28;20438;-52
2022/03/22 08:36:30;;;;;;;;;;;26.90;53.70;;;;;;5053926;28;19938;-53
2022/03/22 08:38:58;;;;;;;;;;;26.20;54.70;;;;;;5054962;28;19986;-53
2022/03/22 08:41:25;;;;;;;;;;;25.10;55.20;;;;;;5072521;28;20708;-53
2022/03/22 08:43:53;;;;;;;;;;;24.80;56.00;;;;;;5073644;28;19935;-53
2022/03/22 08:46:20;;;;;;;;;;;25.60;55.60;;;;;;5073615;28;19924;-53
2022/03/22 08:48:48;;;;;;;;;;;25.80;54.60;;;;;;5073660;28;19932;-53
2022/03/22 08:51:16;;;;;;;;;;;26.30;55.00;;;;;;5072594;28;19931;-52
2022/03/22 08:53:44;;;;;;;;;;;26.60;53.50;;;;;;5073365;28;19924;-52
2022/03/22 08:56:11;;;;;;;;;;;26.90;53.30;;;;;;5073437;28;19978;-52
2022/03/22 08:58:38;;;;;;;;;;;26.20;53.90;;;;;;5072121;28;19924;-52
2022/03/22 09:01:06;;;;;;;;;;;26.50;53.50;;;;;;5073080;28;19931;-52
2022/03/22 09:03:35;;;;;;;;;;;27.50;53.30;;;;;;5072791;28;20007;-52
2022/03/22 09:06:11;;;;;;;;;;;27.80;51.30;;;;;;5053566;28;19924;-52
2022/03/22 09:08:39;;;;;;;;;;;27.40;51.60;;;;;;5058487;28;20307;-52
2022/03/22 09:11:08;;;;;;;;;;;26.60;52.30;;;;;;5072778;28;19994;-52
2022/03/22 09:13:35;;;;;;;;;;;25.90;52.90;;;;;;5070644;28;19925;-51
2022/03/22 09:16:02;;;;;;;;;;;25.50;52.70;;;;;;5064161;28;19970;-51
2022/03/22 09:18:29;;;;;;;;;;;24.80;53.60;;;;;;5072679;28;19928;-51
2022/03/22 09:20:56;;;;;;;;;;;25.90;52.60;;;;;;5072880;28;19925;-51
2022/03/22 09:23:24;;;;;;;;;;;25.10;53.30;;;;;;5071153;28;19970;-51
2022/03/22 09:25:51;;;;;;;;;;;23.30;55.20;;;;;;5072611;28;19924;-51
2022/03/22 09:28:19;;;;;;;;;;;22.20;57.00;;;;;;5072782;28;19925;-51
2022/03/22 09:30:48;;;;;;;;;;;20.80;58.10;;;;;;5072530;28;19925;-51
2022/03/22 09:33:14;;;;;;;;;;;20.60;60.90;;;;;;5068036;28;20407;-52
2022/03/22 09:35:41;;;;;;;;;;;22.00;57.40;;;;;;5072617;28;19970;-51
2022/03/22 09:38:08;;;;;;;;;;;23.90;54.50;;;;;;5072554;28;19928;-51
2022/03/22 09:40:34;;;;;;;;;;;24.80;52.80;;;;;;5052950;28;19974;-52
2022/03/22 09:43:01;;;;;;;;;;;23.90;54.80;;;;;;5052324;28;20477;-51
2022/03/22 09:45:31;;;;;;;;;;;23.80;54.20;;;;;;5059001;28;19994;-52
2022/03/22 09:47:59;;;;;;;;;;;25.10;53.50;;;;;;5066150;28;19970;-51
2022/03/22 09:51:44;;;;;;;;;;;26.10;51.70;;;;;;5062133;28;19983;-52
2022/03/22 09:53:15;;;;;;;;;;;26.40;51.00;;;;;;5062655;28;19991;-52
2022/03/22 09:55:42;;;;;;;;;;;26.50;52.30;;;;;;5071740;28;19924;-52
2022/03/22 09:58:09;;;;;;;;;;;25.20;51.60;;;;;;5072439;28;19935;-51
2022/03/22 10:00:38;;;;;;;;;;;24.60;52.80;;;;;;5072201;28;19968;-51
2022/03/22 10:03:05;;;;;;;;;;;23.40;54.20;;;;;;5071748;28;20395;-52
2022/03/22 10:05:32;;;;;;;;;;;22.20;54.40;;;;;;5071848;28;20004;-52
2022/03/22 10:07:59;;;;;;;;;;;22.70;54.50;;;;;;5071681;28;19929;-52
2022/03/22 10:10:27;;;;;;;;;;;22.80;54.30;;;;;;5072027;28;19935;-51
2022/03/22 10:12:58;;;;;;;;;;;21.90;55.90;;;;;;5071088;28;20024;-52
2022/03/22 10:15:30;;;;;;;;;;;23.00;54.10;;;;;;5066065;28;19924;-52
2022/03/22 10:18:04;;;;;;;;;;;22.90;53.50;;;;;;5071627;28;19924;-52
2022/03/22 10:20:31;;;;;;;;;;;21.50;56.10;;;;;;5070444;28;20019;-52
2022/03/22 10:22:59;;;;;;;;;;;21.40;55.40;;;;;;5068355;28;19977;-52
2022/03/22 10:25:30;;;;;;;;;;;22.50;55.20;;;;;;5070691;28;20467;-52
2022/03/22 10:27:58;;;;;;;;;;;23.40;53.40;;;;;;5070290;28;19993;-52
2022/03/22 10:30:25;;;;;;;;;;;23.00;53.00;;;;;;5069548;28;19978;-52
2022/03/22 10:32:52;;;;;;;;;;;22.80;54.80;;;;;;5068075;28;19924;-52
2022/03/22 10:35:21;;;;;;;;;;;23.80;52.20;;;;;;5068983;28;19932;-52
2022/03/22 10:37:48;;;;;;;;;;;23.30;50.60;;;;;;5066534;28;19982;-52
2022/03/22 10:40:23;;;;;;;;;;;23.50;51.10;;;;;;5070717;28;19924;-52
2022/03/22 10:42:50;;;;;;;;;;;21.50;53.30;;;;;;5069628;28;19935;-52
2022/03/22 10:45:16;;;;;;;;;;;21.50;54.20;;;;;;5069872;28;20383;-52
2022/03/22 10:47:43;;;;;;;;;;;21.60;55.30;;;;;;5069056;28;19932;-53
2022/03/22 10:50:10;;;;;;;;;;;22.10;54.90;;;;;;5062630;28;20303;-53
2022/03/22 10:52:48;;;;;;;;;;;23.20;50.20;;;;;;5068643;28;20350;-53
2022/03/22 10:55:19;;;;;;;;;;;23.50;50.90;;;;;;5061947;28;19982;-52
2022/03/22 10:57:48;;;;;;;;;;;21.70;53.70;;;;;;5070397;28;19931;-52
2022/03/22 11:00:15;;;;;;;;;;;19.80;54.70;;;;;;5070161;28;19970;-52
2022/03/22 11:02:43;;;;;;;;;;;18.70;56.50;;;;;;5069917;28;19924;-52
2022/03/22 11:05:10;;;;;;;;;;;17.60;59.60;;;;;;5071626;28;19932;-52
2022/03/22 11:07:38;;;;;;;;;;;16.80;60.00;;;;;;5068716;28;20384;-51
2022/03/22 11:10:07;;;;;;;;;;;16.50;60.60;;;;;;5068417;28;19978;-52
2022/03/22 11:12:34;;;;;;;;;;;16.50;60.40;;;;;;5070390;28;19925;-52
2022/03/22 11:15:02;;;;;;;;;;;16.80;61.00;;;;;;5067892;28;19928;-52
2022/03/22 11:17:34;;;;;;;;;;;16.70;60.40;;;;;;5063137;28;19971;-51
2022/03/22 11:20:02;;;;;;;;;;;16.10;59.70;;;;;;5068319;28;19929;-52
2022/03/22 11:22:31;;;;;;;;;;;15.80;61.00;;;;;;5070690;28;19924;-52
2022/03/22 11:25:07;;;;;;;;;;;15.70;62.10;;;;;;5068797;28;19924;-52
2022/03/22 11:27:35;;;;;;;;;;;15.80;61.10;;;;;;5079705;28;19924;-51
2022/03/22 11:30:03;;;;;;;;;;;16.00;59.00;;;;;;5072478;28;19924;-52
2022/03/22 11:35:15;;;;;;;;;;;16.10;59.20;;;;;;5074590;28;19928;-52
2022/03/22 11:37:42;;;;;;;;;;;16.00;58.90;;;;;;5071429;28;19924;-52
2022/03/22 11:43:17;;;;;;;;;;;16.30;59.20;;;;;;4983517;28;20393;-51
2022/03/22 11:45:48;;;;;;;;;;;16.10;58.50;;;;;;4982903;28;20837;-51
2022/03/22 11:48:16;;;;;;;;;;;15.90;60.30;;;;;;5025823;28;19924;-51
2022/03/22 11:50:43;;;;;;;;;;;15.70;58.70;;;;;;5070117;28;20035;-51
2022/03/22 11:53:16;;;;;;;;;;;15.80;59.30;;;;;;5071531;28;19928;-51
2022/03/22 11:55:47;;;;;;;;;;;15.90;60.20;;;;;;5073356;28;19986;-51
2022/03/22 11:58:15;;;;;;;;;;;16.20;62.20;;;;;;5074485;28;19925;-51
2022/03/22 12:00:42;;;;;;;;;;;16.10;59.40;;;;;;5074381;28;19932;-51
2022/03/22 12:03:09;;;;;;;;;;;15.90;61.30;;;;;;5074241;28;19974;-52
2022/03/22 12:05:36;;;;;;;;;;;16.20;61.80;;;;;;5081135;28;20353;-51
2022/03/22 12:08:05;;;;;;;;;;;16.50;59.80;;;;;;5077207;28;19970;-51
2022/03/22 12:10:32;;;;;;;;;;;16.30;63.20;;;;;;5104342;22;19932;-54
2022/03/22 12:13:01;;;;;;;;;;;16.20;60.10;;;;;;5086061;28;20500;-55
2022/03/22 12:15:27;;;;;;;;;;;16.00;62.20;;;;;;5094289;28;19928;-54
2022/03/22 12:17:54;;;;;;;;;;;16.10;59.90;;;;;;5105338;28;19939;-55
2022/03/22 12:20:22;;;;;;;;;;;16.30;63.20;;;;;;5096519;28;19932;-55
2022/03/22 12:22:50;;;;;;;;;;;16.20;61.10;;;;;;5092022;28;19924;-54
2022/03/22 12:25:18;;;;;;;;;;;16.50;60.90;;;;;;5091421;28;19928;-54
2022/03/22 12:27:52;;;;;;;;;;;16.80;59.80;;;;;;5091419;28;19924;-54
2022/03/22 12:30:20;;;;;;;;;;;16.90;58.10;;;;;;5091338;28;19942;-54
2022/03/22 12:32:49;;;;;;;;;;;17.00;58.60;;;;;;5086104;28;19951;-54
2022/03/22 12:35:16;;;;;;;;;;;16.70;62.30;;;;;;5091320;28;19935;-54
2022/03/22 12:37:43;;;;;;;;;;;16.70;61.20;;;;;;5090916;28;19936;-55
2022/03/22 12:40:13;;;;;;;;;;;16.90;59.20;;;;;;5090862;28;20366;-54
2022/03/22 12:42:40;;;;;;;;;;;16.80;60.10;;;;;;5091576;28;19946;-54
2022/03/22 12:45:07;;;;;;;;;;;16.60;59.70;;;;;;5091916;28;20352;-54
2022/03/22 12:47:38;;;;;;;;;;;16.60;58.80;;;;;;5091735;28;20336;-55
2022/03/22 12:50:05;;;;;;;;;;;16.50;60.30;;;;;;5091253;28;19970;-55
2022/03/22 12:52:32;;;;;;;;;;;16.50;61.30;;;;;;5091118;28;20488;-55
2022/03/22 12:54:59;;;;;;;;;;;16.20;61.70;;;;;;5090520;28;19932;-54
2022/03/22 12:57:26;;;;;;;;;;;16.30;57.80;;;;;;5089167;28;19924;-55
2022/03/22 12:59:52;;;;;;;;;;;16.30;56.50;;;;;;5089151;28;19989;-54
2022/03/22 13:02:20;;;;;;;;;;;16.20;56.30;;;;;;5085343;28;19928;-55
2022/03/22 13:04:50;;;;;;;;;;;16.50;57.60;;;;;;5087898;28;20018;-55
2022/03/22 13:07:21;;;;;;;;;;;16.80;59.50;;;;;;5087689;28;19940;-55
2022/03/22 13:12:33;;;;;;;;;;;16.80;58.50;;;;;;5080972;28;19942;-55
2022/03/22 13:15:19;;;;;;;;;;;16.90;62.60;;;;;;5078746;28;19924;-54
2022/03/22 13:17:46;;;;;;;;;;;16.80;60.80;;;;;;5084521;28;20000;-55
2022/03/22 13:20:17;;;;;;;;;;;16.60;58.30;;;;;;5089879;28;19924;-54
2022/03/22 13:22:51;;;;;;;;;;;16.60;57.30;;;;;;5090279;28;19932;-54
2022/03/22 13:25:18;;;;;;;;;;;16.80;56.20;;;;;;5088940;28;19931;-54
2022/03/22 13:27:53;;;;;;;;;;;16.70;56.00;;;;;;5090974;28;20014;-54
2022/03/22 13:30:20;;;;;;;;;;;16.70;57.20;;;;;;5090020;28;20422;-54
2022/03/22 13:32:47;;;;;;;;;;;16.60;59.70;;;;;;5090297;28;19928;-54
2022/03/22 13:35:17;;;;;;;;;;;16.50;58.10;;;;;;5090388;28;20290;-54
2022/03/22 13:37:49;;;;;;;;;;;16.40;57.70;;;;;;5090275;28;19928;-54
2022/03/22 13:40:16;;;;;;;;;;;16.50;57.40;;;;;;5089924;28;19924;-54
2022/03/22 13:42:57;;;;;;;;;;;16.80;57.60;;;;;;5090356;28;19924;-54
2022/03/22 13:45:24;;;;;;;;;;;16.90;56.40;;;;;;5088528;28;19985;-54
2022/03/22 13:47:54;;;;;;;;;;;16.90;57.10;;;;;;5089989;28;19932;-54
2022/03/22 13:50:23;;;;;;;;;;;17.00;57.20;;;;;;5089976;28;19936;-54
2022/03/22 13:52:59;;;;;;;;;;;16.90;57.00;;;;;;5089559;28;20309;-54
2022/03/22 13:55:29;;;;;;;;;;;16.90;57.60;;;;;;5088770;28;19953;-54
2022/03/22 13:57:56;;;;;;;;;;;16.70;56.70;;;;;;5084401;28;19968;-54
2022/03/22 14:00:24;;;;;;;;;;;16.90;56.70;;;;;;5088536;28;20026;-54
2022/03/22 14:02:50;;;;;;;;;;;17.00;57.20;;;;;;5088846;28;20423;-54
2022/03/22 14:05:17;;;;;;;;;;;17.00;57.00;;;;;;5089101;28;20018;-54
2022/03/22 14:07:52;;;;;;;;;;;16.70;59.00;;;;;;5088327;28;19977;-54
2022/03/22 14:10:19;;;;;;;;;;;16.40;55.70;;;;;;5087777;28;19925;-54
2022/03/22 14:12:46;;;;;;;;;;;16.60;55.20;;;;;;5087964;28;19977;-54
2022/03/22 14:15:12;;;;;;;;;;;16.60;56.50;;;;;;5088535;28;19931;-54
2022/03/22 14:17:39;;;;;;;;;;;16.90;56.40;;;;;;5088376;28;20094;-54
2022/03/22 14:20:07;;;;;;;;;;;17.10;55.50;;;;;;5088043;28;20028;-54
2022/03/22 14:22:34;;;;;;;;;;;17.00;55.50;;;;;;5087994;28;20504;-54
2022/03/22 14:25:02;;;;;;;;;;;16.90;56.70;;;;;;5088396;28;19924;-54
2022/03/22 14:27:29;;;;;;;;;;;16.60;56.50;;;;;;5084262;28;19996;-54
2022/03/22 14:29:57;;;;;;;;;;;16.50;56.20;;;;;;5088070;28;20456;-54
2022/03/22 14:32:24;;;;;;;;;;;16.60;57.00;;;;;;5087926;28;19985;-54
2022/03/22 14:37:35;;;;;;;;;;;16.40;55.90;;;;;;5086579;28;19931;-54
2022/03/22 14:40:03;;;;;;;;;;;16.50;55.80;;;;;;5088752;28;19984;-54
2022/03/22 14:42:30;;;;;;;;;;;16.40;57.10;;;;;;5084546;28;19935;-54
2022/03/22 14:44:56;;;;;;;;;;;16.50;56.00;;;;;;5089323;28;19931;-54
2022/03/22 14:47:23;;;;;;;;;;;16.30;56.50;;;;;;5089102;28;19928;-54
2022/03/22 14:49:50;;;;;;;;;;;16.80;56.10;;;;;;5088729;28;19924;-54
2022/03/22 14:55:01;;;;;;;;;;;16.80;55.80;;;;;;5089443;28;19943;-54
2022/03/22 15:00:13;;;;;;;;;;;16.50;56.40;;;;;;5088854;28;20429;-54
2022/03/22 15:02:40;;;;;;;;;;;16.70;56.90;;;;;;5088796;28;19924;-54
2022/03/22 15:05:31;;;;;;;;;;;16.90;58.00;;;;;;5089248;28;20091;-54
2022/03/22 15:07:55;;;;;;;;;;;16.70;57.10;;;;;;5088143;28;19967;-54